sensor_id;sensor_type;location;lat;lon;timestamp;P1;durP1;ratioP1;P2;durP2;ratioP2
56381;SDS011;50261;51.150;4.470;2023-01-16T00:02:12;7.45;;;1.35;;
56381;SDS011;50261;51.150;4.470;2023-01-16T00:04:38;5.05;;;1.13;;
56381;SDS011;50261;51.150;4.470;2023-01-16T00:07:04;6.15;;;1.60;;
56381;SDS011;50261;51.150;4.470;2023-01-16T00:09:29;8.98;;;1.83;;
56381;SDS011;50261;51.150;4.470;2023-01-16T00:11:55;3.03;;;0.90;;
56381;SDS011;50261;51.150;4.470;2023-01-16T00:14:21;5.10;;;1.75;;
56381;SDS011;50261;51.150;4.470;2023-01-16T00:16:47;5.53;;;1.20;;
56381;SDS011;50261;51.150;4.470;2023-01-16T00:19:12;5.47;;;1.25;;
56381;SDS011;50261;51.150;4.470;2023-01-16T00:21:38;5.93;;;0.95;;
56381;SDS011;50261;51.150;4.470;2023-01-16T00:24:04;4.40;;;0.93;;
56381;SDS011;50261;51.150;4.470;2023-01-16T00:26:31;4.63;;;1.13;;
56381;SDS011;50261;51.150;4.470;2023-01-16T00:28:57;8.07;;;1.17;;
56381;SDS011;50261;51.150;4.470;2023-01-16T00:31:23;4.38;;;1.05;;
56381;SDS011;50261;51.150;4.470;2023-01-16T00:33:50;10.90;;;1.35;;
56381;SDS011;50261;51.150;4.470;2023-01-16T00:36:16;8.48;;;1.10;;
56381;SDS011;50261;51.150;4.470;2023-01-16T00:38:42;5.65;;;0.85;;
56381;SDS011;50261;51.150;4.470;2023-01-16T00:41:08;4.57;;;1.10;;
56381;SDS011;50261;51.150;4.470;2023-01-16T00:43:34;5.60;;;0.95;;
56381;SDS011;50261;51.150;4.470;2023-01-16T00:45:59;6.25;;;1.02;;
56381;SDS011;50261;51.150;4.470;2023-01-16T00:48:25;4.40;;;0.75;;
56381;SDS011;50261;51.150;4.470;2023-01-16T00:50:51;2.83;;;0.90;;
56381;SDS011;50261;51.150;4.470;2023-01-16T00:53:17;2.17;;;0.50;;
56381;SDS011;50261;51.150;4.470;2023-01-16T00:55:42;3.83;;;1.13;;
56381;SDS011;50261;51.150;4.470;2023-01-16T00:58:09;5.13;;;1.25;;
56381;SDS011;50261;51.150;4.470;2023-01-16T01:00:35;4.25;;;0.73;;
56381;SDS011;50261;51.150;4.470;2023-01-16T01:03:01;1.92;;;0.73;;
56381;SDS011;50261;51.150;4.470;2023-01-16T01:05:27;5.07;;;0.93;;
56381;SDS011;50261;51.150;4.470;2023-01-16T01:07:53;3.50;;;0.90;;
56381;SDS011;50261;51.150;4.470;2023-01-16T01:10:19;5.57;;;0.80;;
56381;SDS011;50261;51.150;4.470;2023-01-16T01:12:45;3.70;;;1.08;;
56381;SDS011;50261;51.150;4.470;2023-01-16T01:15:10;5.03;;;0.75;;
56381;SDS011;50261;51.150;4.470;2023-01-16T01:17:36;7.40;;;1.00;;
56381;SDS011;50261;51.150;4.470;2023-01-16T01:20:02;4.55;;;0.77;;
56381;SDS011;50261;51.150;4.470;2023-01-16T01:22:28;4.68;;;1.00;;
56381;SDS011;50261;51.150;4.470;2023-01-16T01:24:53;2.47;;;1.00;;
56381;SDS011;50261;51.150;4.470;2023-01-16T01:27:19;3.60;;;0.77;;
56381;SDS011;50261;51.150;4.470;2023-01-16T01:29:45;4.63;;;0.77;;
56381;SDS011;50261;51.150;4.470;2023-01-16T01:32:10;4.53;;;1.08;;
56381;SDS011;50261;51.150;4.470;2023-01-16T01:34:36;7.97;;;1.08;;
56381;SDS011;50261;51.150;4.470;2023-01-16T01:37:03;4.22;;;1.00;;
56381;SDS011;50261;51.150;4.470;2023-01-16T01:39:29;2.65;;;0.80;;
56381;SDS011;50261;51.150;4.470;2023-01-16T01:41:55;3.67;;;0.70;;
56381;SDS011;50261;51.150;4.470;2023-01-16T01:44:44;7.05;;;0.88;;
56381;SDS011;50261;51.150;4.470;2023-01-16T01:47:11;5.15;;;1.00;;
56381;SDS011;50261;51.150;4.470;2023-01-16T01:49:37;5.53;;;1.30;;
56381;SDS011;50261;51.150;4.470;2023-01-16T01:52:04;2.00;;;1.15;;
56381;SDS011;50261;51.150;4.470;2023-01-16T01:54:38;6.60;;;1.60;;
56381;SDS011;50261;51.150;4.470;2023-01-16T01:59:35;7.15;;;2.20;;
56381;SDS011;50261;51.150;4.470;2023-01-16T02:02:03;5.43;;;1.67;;
56381;SDS011;50261;51.150;4.470;2023-01-16T02:04:30;6.38;;;1.55;;
56381;SDS011;50261;51.150;4.470;2023-01-16T02:06:58;6.95;;;1.60;;
56381;SDS011;50261;51.150;4.470;2023-01-16T02:09:24;4.00;;;1.35;;
56381;SDS011;50261;51.150;4.470;2023-01-16T02:11:52;4.45;;;1.13;;
56381;SDS011;50261;51.150;4.470;2023-01-16T02:14:19;3.95;;;0.82;;
56381;SDS011;50261;51.150;4.470;2023-01-16T02:16:45;4.38;;;1.08;;
56381;SDS011;50261;51.150;4.470;2023-01-16T02:19:43;5.15;;;1.20;;
56381;SDS011;50261;51.150;4.470;2023-01-16T02:34:52;3.25;;;0.85;;
56381;SDS011;50261;51.150;4.470;2023-01-16T02:37:35;4.68;;;1.00;;
56381;SDS011;50261;51.150;4.470;2023-01-16T02:42:42;5.28;;;1.10;;
56381;SDS011;50261;51.150;4.470;2023-01-16T02:46:10;6.55;;;1.10;;
56381;SDS011;50261;51.150;4.470;2023-01-16T02:55:28;5.40;;;1.13;;
56381;SDS011;50261;51.150;4.470;2023-01-16T02:57:56;5.13;;;1.40;;
56381;SDS011;50261;51.150;4.470;2023-01-16T03:00:23;7.55;;;1.67;;
56381;SDS011;50261;51.150;4.470;2023-01-16T03:02:49;5.35;;;1.20;;
56381;SDS011;50261;51.150;4.470;2023-01-16T03:05:15;5.18;;;1.15;;
56381;SDS011;50261;51.150;4.470;2023-01-16T03:13:02;10.77;;;2.08;;
56381;SDS011;50261;51.150;4.470;2023-01-16T03:15:50;8.38;;;1.55;;
56381;SDS011;50261;51.150;4.470;2023-01-16T03:18:29;5.25;;;1.45;;
56381;SDS011;50261;51.150;4.470;2023-01-16T03:21:05;4.07;;;1.40;;
56381;SDS011;50261;51.150;4.470;2023-01-16T03:23:45;8.75;;;1.65;;
56381;SDS011;50261;51.150;4.470;2023-01-16T03:26:14;5.72;;;1.40;;
56381;SDS011;50261;51.150;4.470;2023-01-16T03:31:23;6.95;;;1.40;;
56381;SDS011;50261;51.150;4.470;2023-01-16T03:33:52;4.75;;;1.38;;
56381;SDS011;50261;51.150;4.470;2023-01-16T03:38:56;6.32;;;1.15;;
56381;SDS011;50261;51.150;4.470;2023-01-16T03:41:23;9.80;;;1.80;;
56381;SDS011;50261;51.150;4.470;2023-01-16T03:43:51;6.25;;;1.08;;
56381;SDS011;50261;51.150;4.470;2023-01-16T03:46:26;10.75;;;1.52;;
56381;SDS011;50261;51.150;4.470;2023-01-16T03:48:59;7.28;;;1.33;;
56381;SDS011;50261;51.150;4.470;2023-01-16T03:51:27;6.35;;;1.55;;
56381;SDS011;50261;51.150;4.470;2023-01-16T03:56:29;4.55;;;1.15;;
56381;SDS011;50261;51.150;4.470;2023-01-16T03:58:55;5.40;;;1.15;;
56381;SDS011;50261;51.150;4.470;2023-01-16T04:03:54;9.73;;;1.70;;
56381;SDS011;50261;51.150;4.470;2023-01-16T04:06:30;7.40;;;1.85;;
56381;SDS011;50261;51.150;4.470;2023-01-16T04:08:57;6.97;;;1.50;;
56381;SDS011;50261;51.150;4.470;2023-01-16T04:11:23;7.32;;;1.90;;
56381;SDS011;50261;51.150;4.470;2023-01-16T04:13:51;7.78;;;1.63;;
56381;SDS011;50261;51.150;4.470;2023-01-16T04:16:18;5.93;;;1.40;;
56381;SDS011;50261;51.150;4.470;2023-01-16T04:18:45;5.07;;;1.10;;
56381;SDS011;50261;51.150;4.470;2023-01-16T04:21:11;8.80;;;1.50;;
56381;SDS011;50261;51.150;4.470;2023-01-16T04:23:37;6.03;;;1.88;;
56381;SDS011;50261;51.150;4.470;2023-01-16T04:26:03;5.63;;;1.02;;
56381;SDS011;50261;51.150;4.470;2023-01-16T04:28:29;7.32;;;1.40;;
56381;SDS011;50261;51.150;4.470;2023-01-16T04:30:54;5.00;;;1.35;;
56381;SDS011;50261;51.150;4.470;2023-01-16T04:33:20;9.30;;;1.25;;
56381;SDS011;50261;51.150;4.470;2023-01-16T04:35:46;7.35;;;1.58;;
56381;SDS011;50261;51.150;4.470;2023-01-16T04:38:12;8.90;;;1.50;;
56381;SDS011;50261;51.150;4.470;2023-01-16T04:40:37;4.85;;;1.10;;
56381;SDS011;50261;51.150;4.470;2023-01-16T04:43:03;4.63;;;1.10;;
56381;SDS011;50261;51.150;4.470;2023-01-16T04:45:29;5.60;;;1.75;;
56381;SDS011;50261;51.150;4.470;2023-01-16T04:47:54;8.05;;;1.23;;
56381;SDS011;50261;51.150;4.470;2023-01-16T04:50:20;10.10;;;1.23;;
56381;SDS011;50261;51.150;4.470;2023-01-16T04:52:46;8.18;;;1.45;;
56381;SDS011;50261;51.150;4.470;2023-01-16T04:55:12;8.52;;;1.45;;
56381;SDS011;50261;51.150;4.470;2023-01-16T04:57:38;5.30;;;1.40;;
56381;SDS011;50261;51.150;4.470;2023-01-16T05:00:04;7.63;;;1.10;;
56381;SDS011;50261;51.150;4.470;2023-01-16T05:02:30;8.75;;;0.98;;
56381;SDS011;50261;51.150;4.470;2023-01-16T05:04:56;5.13;;;0.93;;
56381;SDS011;50261;51.150;4.470;2023-01-16T05:07:22;9.50;;;1.55;;
56381;SDS011;50261;51.150;4.470;2023-01-16T05:09:47;7.68;;;1.38;;
56381;SDS011;50261;51.150;4.470;2023-01-16T05:12:13;6.07;;;0.77;;
56381;SDS011;50261;51.150;4.470;2023-01-16T05:14:39;6.88;;;1.50;;
56381;SDS011;50261;51.150;4.470;2023-01-16T05:17:05;8.48;;;1.42;;
56381;SDS011;50261;51.150;4.470;2023-01-16T05:19:30;3.03;;;0.90;;
56381;SDS011;50261;51.150;4.470;2023-01-16T05:21:56;4.68;;;1.20;;
56381;SDS011;50261;51.150;4.470;2023-01-16T05:24:22;4.93;;;1.02;;
56381;SDS011;50261;51.150;4.470;2023-01-16T05:26:47;6.30;;;1.45;;
56381;SDS011;50261;51.150;4.470;2023-01-16T05:29:13;5.82;;;1.10;;
56381;SDS011;50261;51.150;4.470;2023-01-16T05:31:39;3.97;;;1.27;;
56381;SDS011;50261;51.150;4.470;2023-01-16T05:34:04;6.55;;;1.50;;
56381;SDS011;50261;51.150;4.470;2023-01-16T05:36:30;8.52;;;1.20;;
56381;SDS011;50261;51.150;4.470;2023-01-16T05:38:56;3.33;;;1.45;;
56381;SDS011;50261;51.150;4.470;2023-01-16T05:41:21;5.57;;;1.00;;
56381;SDS011;50261;51.150;4.470;2023-01-16T05:43:47;6.40;;;1.10;;
56381;SDS011;50261;51.150;4.470;2023-01-16T05:46:13;6.22;;;1.60;;
56381;SDS011;50261;51.150;4.470;2023-01-16T05:48:39;5.32;;;0.90;;
56381;SDS011;50261;51.150;4.470;2023-01-16T05:51:04;5.65;;;1.30;;
56381;SDS011;50261;51.150;4.470;2023-01-16T05:53:31;4.72;;;0.90;;
56381;SDS011;50261;51.150;4.470;2023-01-16T05:55:57;4.88;;;1.00;;
56381;SDS011;50261;51.150;4.470;2023-01-16T05:58:23;4.57;;;1.10;;
56381;SDS011;50261;51.150;4.470;2023-01-16T06:00:48;6.07;;;0.95;;
56381;SDS011;50261;51.150;4.470;2023-01-16T06:03:14;9.52;;;1.38;;
56381;SDS011;50261;51.150;4.470;2023-01-16T06:05:43;3.35;;;0.70;;
56381;SDS011;50261;51.150;4.470;2023-01-16T06:08:08;7.05;;;1.17;;
56381;SDS011;50261;51.150;4.470;2023-01-16T06:10:34;3.08;;;0.70;;
56381;SDS011;50261;51.150;4.470;2023-01-16T06:13:01;3.75;;;0.85;;
56381;SDS011;50261;51.150;4.470;2023-01-16T06:15:27;5.90;;;0.88;;
56381;SDS011;50261;51.150;4.470;2023-01-16T06:17:53;4.88;;;0.73;;
56381;SDS011;50261;51.150;4.470;2023-01-16T06:20:19;6.70;;;1.48;;
56381;SDS011;50261;51.150;4.470;2023-01-16T06:22:45;7.18;;;0.50;;
56381;SDS011;50261;51.150;4.470;2023-01-16T06:25:11;4.40;;;0.82;;
56381;SDS011;50261;51.150;4.470;2023-01-16T06:27:36;6.03;;;1.00;;
56381;SDS011;50261;51.150;4.470;2023-01-16T06:30:03;6.50;;;1.10;;
56381;SDS011;50261;51.150;4.470;2023-01-16T06:32:29;4.65;;;1.02;;
56381;SDS011;50261;51.150;4.470;2023-01-16T06:34:55;3.22;;;0.70;;
56381;SDS011;50261;51.150;4.470;2023-01-16T06:37:21;3.70;;;0.63;;
56381;SDS011;50261;51.150;4.470;2023-01-16T06:39:46;2.38;;;0.63;;
56381;SDS011;50261;51.150;4.470;2023-01-16T06:42:12;7.30;;;1.27;;
56381;SDS011;50261;51.150;4.470;2023-01-16T06:44:38;3.38;;;0.60;;
56381;SDS011;50261;51.150;4.470;2023-01-16T06:47:03;3.03;;;0.60;;
56381;SDS011;50261;51.150;4.470;2023-01-16T06:49:29;3.92;;;0.70;;
56381;SDS011;50261;51.150;4.470;2023-01-16T06:51:55;2.70;;;0.80;;
56381;SDS011;50261;51.150;4.470;2023-01-16T06:54:21;3.53;;;0.50;;
56381;SDS011;50261;51.150;4.470;2023-01-16T06:56:46;3.10;;;0.50;;
56381;SDS011;50261;51.150;4.470;2023-01-16T06:59:12;4.03;;;0.60;;
56381;SDS011;50261;51.150;4.470;2023-01-16T07:01:37;3.22;;;0.57;;
56381;SDS011;50261;51.150;4.470;2023-01-16T07:04:03;3.90;;;0.50;;
56381;SDS011;50261;51.150;4.470;2023-01-16T07:06:28;2.58;;;0.68;;
56381;SDS011;50261;51.150;4.470;2023-01-16T07:08:54;3.22;;;0.70;;
56381;SDS011;50261;51.150;4.470;2023-01-16T07:11:20;3.00;;;0.82;;
56381;SDS011;50261;51.150;4.470;2023-01-16T07:13:46;4.03;;;0.65;;
56381;SDS011;50261;51.150;4.470;2023-01-16T07:16:12;3.55;;;0.80;;
56381;SDS011;50261;51.150;4.470;2023-01-16T07:18:57;4.32;;;0.65;;
56381;SDS011;50261;51.150;4.470;2023-01-16T07:21:41;1.63;;;0.57;;
56381;SDS011;50261;51.150;4.470;2023-01-16T07:24:27;3.08;;;0.50;;
56381;SDS011;50261;51.150;4.470;2023-01-16T07:26:55;2.50;;;0.50;;
56381;SDS011;50261;51.150;4.470;2023-01-16T07:29:25;2.13;;;0.70;;
56381;SDS011;50261;51.150;4.470;2023-01-16T07:31:51;2.75;;;0.55;;
56381;SDS011;50261;51.150;4.470;2023-01-16T07:34:17;3.40;;;0.50;;
56381;SDS011;50261;51.150;4.470;2023-01-16T07:36:43;1.70;;;0.40;;
56381;SDS011;50261;51.150;4.470;2023-01-16T07:39:08;1.02;;;0.30;;
56381;SDS011;50261;51.150;4.470;2023-01-16T07:41:34;1.02;;;0.20;;
56381;SDS011;50261;51.150;4.470;2023-01-16T07:44:00;1.13;;;0.30;;
56381;SDS011;50261;51.150;4.470;2023-01-16T07:46:25;2.78;;;0.43;;
56381;SDS011;50261;51.150;4.470;2023-01-16T07:48:51;1.27;;;0.30;;
56381;SDS011;50261;51.150;4.470;2023-01-16T07:51:18;0.85;;;0.30;;
56381;SDS011;50261;51.150;4.470;2023-01-16T07:53:44;0.90;;;0.25;;
56381;SDS011;50261;51.150;4.470;2023-01-16T07:56:09;1.60;;;0.30;;
56381;SDS011;50261;51.150;4.470;2023-01-16T07:58:35;0.55;;;0.20;;
56381;SDS011;50261;51.150;4.470;2023-01-16T08:01:01;1.00;;;0.40;;
56381;SDS011;50261;51.150;4.470;2023-01-16T08:03:26;0.85;;;0.30;;
56381;SDS011;50261;51.150;4.470;2023-01-16T08:05:56;0.40;;;0.20;;
56381;SDS011;50261;51.150;4.470;2023-01-16T08:08:22;0.45;;;0.22;;
56381;SDS011;50261;51.150;4.470;2023-01-16T08:10:56;0.40;;;0.10;;
56381;SDS011;50261;51.150;4.470;2023-01-16T08:13:22;0.65;;;0.20;;
56381;SDS011;50261;51.150;4.470;2023-01-16T08:16:05;0.32;;;0.28;;
56381;SDS011;50261;51.150;4.470;2023-01-16T08:18:31;1.73;;;0.30;;
56381;SDS011;50261;51.150;4.470;2023-01-16T08:20:56;0.70;;;0.30;;
56381;SDS011;50261;51.150;4.470;2023-01-16T08:23:22;0.50;;;0.30;;
56381;SDS011;50261;51.150;4.470;2023-01-16T08:25:50;1.00;;;0.30;;
56381;SDS011;50261;51.150;4.470;2023-01-16T08:28:17;0.65;;;0.20;;
56381;SDS011;50261;51.150;4.470;2023-01-16T08:30:43;0.60;;;0.30;;
56381;SDS011;50261;51.150;4.470;2023-01-16T08:33:09;0.47;;;0.30;;
56381;SDS011;50261;51.150;4.470;2023-01-16T08:35:34;0.70;;;0.30;;
56381;SDS011;50261;51.150;4.470;2023-01-16T08:37:59;1.25;;;0.63;;
56381;SDS011;50261;51.150;4.470;2023-01-16T08:40:25;0.88;;;0.60;;
56381;SDS011;50261;51.150;4.470;2023-01-16T08:42:50;3.88;;;0.88;;
56381;SDS011;50261;51.150;4.470;2023-01-16T08:45:34;2.13;;;0.70;;
56381;SDS011;50261;51.150;4.470;2023-01-16T08:48:23;1.42;;;0.60;;
56381;SDS011;50261;51.150;4.470;2023-01-16T08:51:11;0.73;;;0.40;;
56381;SDS011;50261;51.150;4.470;2023-01-16T08:53:52;0.57;;;0.30;;
56381;SDS011;50261;51.150;4.470;2023-01-16T08:56:18;0.93;;;0.30;;
56381;SDS011;50261;51.150;4.470;2023-01-16T08:58:44;1.60;;;0.40;;
56381;SDS011;50261;51.150;4.470;2023-01-16T09:01:10;1.50;;;0.40;;
56381;SDS011;50261;51.150;4.470;2023-01-16T09:03:35;0.70;;;0.40;;
56381;SDS011;50261;51.150;4.470;2023-01-16T09:06:01;0.65;;;0.43;;
56381;SDS011;50261;51.150;4.470;2023-01-16T09:08:26;0.47;;;0.30;;
56381;SDS011;50261;51.150;4.470;2023-01-16T09:10:52;1.33;;;0.32;;
56381;SDS011;50261;51.150;4.470;2023-01-16T09:13:36;1.52;;;0.52;;
56381;SDS011;50261;51.150;4.470;2023-01-16T09:16:14;1.13;;;0.55;;
56381;SDS011;50261;51.150;4.470;2023-01-16T09:18:40;0.30;;;0.30;;
56381;SDS011;50261;51.150;4.470;2023-01-16T09:21:05;0.60;;;0.35;;
56381;SDS011;50261;51.150;4.470;2023-01-16T09:23:30;1.73;;;0.40;;
56381;SDS011;50261;51.150;4.470;2023-01-16T09:25:56;2.58;;;0.57;;
56381;SDS011;50261;51.150;4.470;2023-01-16T09:28:21;0.90;;;0.40;;
56381;SDS011;50261;51.150;4.470;2023-01-16T09:30:47;1.17;;;0.50;;
56381;SDS011;50261;51.150;4.470;2023-01-16T09:33:12;0.68;;;0.55;;
56381;SDS011;50261;51.150;4.470;2023-01-16T09:35:38;3.17;;;0.50;;
56381;SDS011;50261;51.150;4.470;2023-01-16T09:38:03;1.25;;;0.40;;
56381;SDS011;50261;51.150;4.470;2023-01-16T09:40:28;1.60;;;0.73;;
56381;SDS011;50261;51.150;4.470;2023-01-16T09:42:58;0.85;;;0.32;;
56381;SDS011;50261;51.150;4.470;2023-01-16T09:45:45;1.00;;;0.50;;
56381;SDS011;50261;51.150;4.470;2023-01-16T09:51:14;0.38;;;0.30;;
56381;SDS011;50261;51.150;4.470;2023-01-16T09:53:54;1.55;;;0.35;;
56381;SDS011;50261;51.150;4.470;2023-01-16T09:56:40;1.23;;;0.40;;
56381;SDS011;50261;51.150;4.470;2023-01-16T09:59:57;0.73;;;0.40;;
56381;SDS011;50261;51.150;4.470;2023-01-16T10:02:20;1.85;;;0.57;;
56381;SDS011;50261;51.150;4.470;2023-01-16T10:04:48;0.57;;;0.40;;
56381;SDS011;50261;51.150;4.470;2023-01-16T10:12:25;1.25;;;0.50;;
56381;SDS011;50261;51.150;4.470;2023-01-16T10:20:14;0.73;;;0.45;;
56381;SDS011;50261;51.150;4.470;2023-01-16T10:30:08;1.98;;;0.47;;
56381;SDS011;50261;51.150;4.470;2023-01-16T10:32:42;2.67;;;0.70;;
56381;SDS011;50261;51.150;4.470;2023-01-16T10:37:43;0.52;;;0.40;;
56381;SDS011;50261;51.150;4.470;2023-01-16T10:43:06;1.52;;;0.40;;
56381;SDS011;50261;51.150;4.470;2023-01-16T10:45:52;1.17;;;0.50;;
56381;SDS011;50261;51.150;4.470;2023-01-16T10:48:37;0.77;;;0.45;;
56381;SDS011;50261;51.150;4.470;2023-01-16T10:51:22;1.73;;;0.57;;
56381;SDS011;50261;51.150;4.470;2023-01-16T10:53:47;1.63;;;0.75;;
56381;SDS011;50261;51.150;4.470;2023-01-16T10:56:12;1.50;;;0.70;;
56381;SDS011;50261;51.150;4.470;2023-01-16T10:58:38;1.98;;;0.85;;
56381;SDS011;50261;51.150;4.470;2023-01-16T11:03:44;3.40;;;2.03;;
56381;SDS011;50261;51.150;4.470;2023-01-16T11:06:21;3.80;;;1.77;;
56381;SDS011;50261;51.150;4.470;2023-01-16T11:09:32;2.75;;;1.38;;
56381;SDS011;50261;51.150;4.470;2023-01-16T11:11:34;1.50;;;1.17;;
56381;SDS011;50261;51.150;4.470;2023-01-16T11:20:19;3.13;;;0.60;;
56381;SDS011;50261;51.150;4.470;2023-01-16T11:22:56;1.13;;;0.30;;
56381;SDS011;50261;51.150;4.470;2023-01-16T11:25:26;0.47;;;0.20;;
56381;SDS011;50261;51.150;4.470;2023-01-16T11:27:54;0.22;;;0.22;;
56381;SDS011;50261;51.150;4.470;2023-01-16T11:30:21;0.77;;;0.30;;
56381;SDS011;50261;51.150;4.470;2023-01-16T11:32:52;1.58;;;0.30;;
56381;SDS011;50261;51.150;4.470;2023-01-16T11:35:19;1.02;;;0.20;;
56381;SDS011;50261;51.150;4.470;2023-01-16T11:37:48;1.70;;;0.40;;
56381;SDS011;50261;51.150;4.470;2023-01-16T11:40:18;0.85;;;0.40;;
56381;SDS011;50261;51.150;4.470;2023-01-16T11:42:51;0.68;;;0.40;;
56381;SDS011;50261;51.150;4.470;2023-01-16T11:45:38;1.17;;;0.40;;
56381;SDS011;50261;51.150;4.470;2023-01-16T11:48:23;1.40;;;0.40;;
56381;SDS011;50261;51.150;4.470;2023-01-16T11:50:50;3.17;;;0.50;;
56381;SDS011;50261;51.150;4.470;2023-01-16T11:53:16;5.55;;;0.60;;
56381;SDS011;50261;51.150;4.470;2023-01-16T11:55:55;2.10;;;0.40;;
56381;SDS011;50261;51.150;4.470;2023-01-16T12:01:13;2.00;;;0.52;;
56381;SDS011;50261;51.150;4.470;2023-01-16T12:06:11;0.98;;;0.50;;
56381;SDS011;50261;51.150;4.470;2023-01-16T12:08:56;2.88;;;0.90;;
56381;SDS011;50261;51.150;4.470;2023-01-16T12:21:45;2.28;;;0.90;;
56381;SDS011;50261;51.150;4.470;2023-01-16T12:32:07;2.95;;;1.48;;
56381;SDS011;50261;51.150;4.470;2023-01-16T12:39:57;2.75;;;1.42;;
56381;SDS011;50261;51.150;4.470;2023-01-16T12:58:32;1.63;;;0.90;;
56381;SDS011;50261;51.150;4.470;2023-01-16T13:03:38;1.10;;;0.80;;
56381;SDS011;50261;51.150;4.470;2023-01-16T13:06:06;1.45;;;0.63;;
56381;SDS011;50261;51.150;4.470;2023-01-16T13:08:39;2.30;;;1.05;;
56381;SDS011;50261;51.150;4.470;2023-01-16T13:11:10;2.05;;;0.80;;
56381;SDS011;50261;51.150;4.470;2023-01-16T13:13:56;0.45;;;0.40;;
56381;SDS011;50261;51.150;4.470;2023-01-16T13:18:52;1.80;;;0.65;;
56381;SDS011;50261;51.150;4.470;2023-01-16T13:21:20;2.03;;;0.88;;
56381;SDS011;50261;51.150;4.470;2023-01-16T13:23:54;1.13;;;0.73;;
56381;SDS011;50261;51.150;4.470;2023-01-16T13:26:21;1.38;;;0.80;;
56381;SDS011;50261;51.150;4.470;2023-01-16T13:28:50;1.15;;;0.50;;
56381;SDS011;50261;51.150;4.470;2023-01-16T13:33:42;0.65;;;0.50;;
56381;SDS011;50261;51.150;4.470;2023-01-16T13:36:19;1.50;;;0.70;;
56381;SDS011;50261;51.150;4.470;2023-01-16T13:38:52;1.67;;;1.00;;
56381;SDS011;50261;51.150;4.470;2023-01-16T13:42:06;2.53;;;1.30;;
56381;SDS011;50261;51.150;4.470;2023-01-16T13:44:08;3.60;;;1.40;;
56381;SDS011;50261;51.150;4.470;2023-01-16T13:46:55;3.55;;;1.60;;
56381;SDS011;50261;51.150;4.470;2023-01-16T13:49:27;2.10;;;1.38;;
56381;SDS011;50261;51.150;4.470;2023-01-16T13:51:53;2.63;;;1.13;;
56381;SDS011;50261;51.150;4.470;2023-01-16T13:54:20;2.20;;;1.20;;
56381;SDS011;50261;51.150;4.470;2023-01-16T14:01:55;1.02;;;0.40;;
56381;SDS011;50261;51.150;4.470;2023-01-16T14:06:50;0.52;;;0.50;;
56381;SDS011;50261;51.150;4.470;2023-01-16T14:09:57;1.40;;;0.60;;
56381;SDS011;50261;51.150;4.470;2023-01-16T14:12:21;2.63;;;0.50;;
56381;SDS011;50261;51.150;4.470;2023-01-16T14:14:49;2.47;;;1.33;;
56381;SDS011;50261;51.150;4.470;2023-01-16T14:23:03;2.15;;;1.10;;
56381;SDS011;50261;51.150;4.470;2023-01-16T14:25:50;0.80;;;0.70;;
56381;SDS011;50261;51.150;4.470;2023-01-16T14:28:18;2.08;;;1.30;;
56381;SDS011;50261;51.150;4.470;2023-01-16T14:30:44;2.90;;;1.20;;
56381;SDS011;50261;51.150;4.470;2023-01-16T14:33:16;1.77;;;0.88;;
56381;SDS011;50261;51.150;4.470;2023-01-16T14:35:51;3.72;;;1.40;;
56381;SDS011;50261;51.150;4.470;2023-01-16T14:38:20;6.10;;;1.25;;
56381;SDS011;50261;51.150;4.470;2023-01-16T14:40:51;1.25;;;0.95;;
56381;SDS011;50261;51.150;4.470;2023-01-16T14:43:36;1.85;;;1.33;;
56381;SDS011;50261;51.150;4.470;2023-01-16T14:46:31;3.15;;;1.70;;
56381;SDS011;50261;51.150;4.470;2023-01-16T14:52:19;2.88;;;1.73;;
56381;SDS011;50261;51.150;4.470;2023-01-16T14:55:17;3.45;;;1.70;;
56381;SDS011;50261;51.150;4.470;2023-01-16T14:57:43;4.78;;;2.67;;
56381;SDS011;50261;51.150;4.470;2023-01-16T15:00:13;6.22;;;3.08;;
56381;SDS011;50261;51.150;4.470;2023-01-16T15:05:15;2.08;;;1.20;;
56381;SDS011;50261;51.150;4.470;2023-01-16T15:12:37;2.72;;;1.67;;
56381;SDS011;50261;51.150;4.470;2023-01-16T15:15:04;4.60;;;1.27;;
56381;SDS011;50261;51.150;4.470;2023-01-16T15:20:24;2.10;;;1.50;;
56381;SDS011;50261;51.150;4.470;2023-01-16T15:23:15;3.30;;;1.63;;
56381;SDS011;50261;51.150;4.470;2023-01-16T15:25:51;3.33;;;1.80;;
56381;SDS011;50261;51.150;4.470;2023-01-16T15:28:29;3.72;;;1.70;;
56381;SDS011;50261;51.150;4.470;2023-01-16T15:31:00;4.15;;;2.10;;
56381;SDS011;50261;51.150;4.470;2023-01-16T15:33:27;2.47;;;1.35;;
56381;SDS011;50261;51.150;4.470;2023-01-16T15:38:44;1.75;;;1.30;;
56381;SDS011;50261;51.150;4.470;2023-01-16T15:41:10;2.83;;;1.80;;
56381;SDS011;50261;51.150;4.470;2023-01-16T15:43:36;2.58;;;1.58;;
56381;SDS011;50261;51.150;4.470;2023-01-16T15:46:22;2.10;;;1.50;;
56381;SDS011;50261;51.150;4.470;2023-01-16T15:49:21;2.30;;;1.50;;
56381;SDS011;50261;51.150;4.470;2023-01-16T15:51:50;4.28;;;1.27;;
56381;SDS011;50261;51.150;4.470;2023-01-16T15:54:16;1.85;;;1.20;;
56381;SDS011;50261;51.150;4.470;2023-01-16T15:56:42;2.03;;;1.00;;
56381;SDS011;50261;51.150;4.470;2023-01-16T15:59:30;1.50;;;0.93;;
56381;SDS011;50261;51.150;4.470;2023-01-16T16:04:39;1.45;;;0.80;;
56381;SDS011;50261;51.150;4.470;2023-01-16T16:07:05;1.52;;;0.73;;
56381;SDS011;50261;51.150;4.470;2023-01-16T16:09:31;1.17;;;0.60;;
56381;SDS011;50261;51.150;4.470;2023-01-16T16:11:56;2.00;;;0.73;;
56381;SDS011;50261;51.150;4.470;2023-01-16T16:14:29;0.52;;;0.30;;
56381;SDS011;50261;51.150;4.470;2023-01-16T16:17:26;0.50;;;0.20;;
56381;SDS011;50261;51.150;4.470;2023-01-16T16:22:56;2.00;;;0.40;;
56381;SDS011;50261;51.150;4.470;2023-01-16T16:25:25;0.50;;;0.30;;
56381;SDS011;50261;51.150;4.470;2023-01-16T16:27:52;1.83;;;0.30;;
56381;SDS011;50261;51.150;4.470;2023-01-16T16:30:19;1.27;;;0.32;;
56381;SDS011;50261;51.150;4.470;2023-01-16T16:32:46;0.90;;;0.30;;
56381;SDS011;50261;51.150;4.470;2023-01-16T16:35:20;6.18;;;1.98;;
56381;SDS011;50261;51.150;4.470;2023-01-16T16:37:49;2.92;;;1.58;;
56381;SDS011;50261;51.150;4.470;2023-01-16T16:40:15;1.73;;;0.70;;
56381;SDS011;50261;51.150;4.470;2023-01-16T16:47:41;1.98;;;0.70;;
56381;SDS011;50261;51.150;4.470;2023-01-16T16:52:52;1.30;;;0.50;;
56381;SDS011;50261;51.150;4.470;2023-01-16T16:55:29;1.73;;;0.75;;
56381;SDS011;50261;51.150;4.470;2023-01-16T16:57:56;1.73;;;0.70;;
56381;SDS011;50261;51.150;4.470;2023-01-16T17:00:23;2.38;;;0.77;;
56381;SDS011;50261;51.150;4.470;2023-01-16T17:02:50;1.45;;;0.47;;
56381;SDS011;50261;51.150;4.470;2023-01-16T17:05:16;1.83;;;0.70;;
56381;SDS011;50261;51.150;4.470;2023-01-16T17:07:47;1.38;;;0.73;;
56381;SDS011;50261;51.150;4.470;2023-01-16T17:10:14;1.98;;;0.32;;
56381;SDS011;50261;51.150;4.470;2023-01-16T17:12:40;2.50;;;0.60;;
56381;SDS011;50261;51.150;4.470;2023-01-16T17:15:07;1.67;;;0.50;;
56381;SDS011;50261;51.150;4.470;2023-01-16T17:17:33;2.55;;;0.70;;
56381;SDS011;50261;51.150;4.470;2023-01-16T17:19:58;1.95;;;0.50;;
56381;SDS011;50261;51.150;4.470;2023-01-16T17:22:24;1.60;;;0.50;;
56381;SDS011;50261;51.150;4.470;2023-01-16T17:24:50;2.17;;;0.47;;
56381;SDS011;50261;51.150;4.470;2023-01-16T17:27:17;1.63;;;0.50;;
56381;SDS011;50261;51.150;4.470;2023-01-16T17:29:43;1.45;;;0.32;;
56381;SDS011;50261;51.150;4.470;2023-01-16T17:32:21;1.70;;;0.35;;
56381;SDS011;50261;51.150;4.470;2023-01-16T17:34:49;2.20;;;0.80;;
56381;SDS011;50261;51.150;4.470;2023-01-16T17:37:14;2.20;;;1.00;;
56381;SDS011;50261;51.150;4.470;2023-01-16T17:39:40;2.72;;;0.85;;
56381;SDS011;50261;51.150;4.470;2023-01-16T17:42:08;9.43;;;4.53;;
56381;SDS011;50261;51.150;4.470;2023-01-16T17:44:34;4.70;;;0.82;;
56381;SDS011;50261;51.150;4.470;2023-01-16T17:47:18;4.15;;;0.90;;
56381;SDS011;50261;51.150;4.470;2023-01-16T17:49:43;1.80;;;0.77;;
56381;SDS011;50261;51.150;4.470;2023-01-16T17:52:28;2.13;;;0.70;;
56381;SDS011;50261;51.150;4.470;2023-01-16T17:54:53;2.83;;;0.82;;